createdAt,value
2022-11-24T00:00:28.346Z,5.40
2022-11-24T00:02:56.177Z,5.30
2022-11-24T00:05:24.000Z,5.20
2022-11-24T00:07:53.103Z,5.00
2022-11-24T00:10:21.089Z,5.10
2022-11-24T00:12:48.771Z,5.20
2022-11-24T00:15:16.421Z,5.10
2022-11-24T00:17:44.111Z,5.20
2022-11-24T00:20:11.987Z,5.10
2022-11-24T00:22:39.683Z,5.10
2022-11-24T00:25:08.935Z,5.30
2022-11-24T00:27:36.728Z,5.30
2022-11-24T00:30:05.074Z,5.20
2022-11-24T00:32:32.775Z,5.50
2022-11-24T00:35:00.444Z,5.60
2022-11-24T00:37:28.131Z,5.60
2022-11-24T00:39:55.898Z,5.70
2022-11-24T00:42:24.925Z,5.70
2022-11-24T00:44:52.822Z,5.90
2022-11-24T00:47:20.772Z,5.70
2022-11-24T00:49:48.702Z,5.70
2022-11-24T00:52:16.362Z,5.70
2022-11-24T00:54:44.048Z,5.70
2022-11-24T00:57:11.709Z,5.50
2022-11-24T00:59:41.052Z,5.40
2022-11-24T01:02:08.800Z,5.40
2022-11-24T01:04:36.664Z,5.60
2022-11-24T01:07:04.476Z,5.60
2022-11-24T01:09:32.195Z,5.50
2022-11-24T01:12:02.889Z,5.50
2022-11-24T01:14:32.258Z,5.60
2022-11-24T01:17:01.601Z,5.50
2022-11-24T01:19:29.250Z,5.60
2022-11-24T01:21:56.912Z,5.50
2022-11-24T01:24:24.711Z,5.80
2022-11-24T01:26:52.613Z,5.90
2022-11-24T01:29:20.284Z,5.70
2022-11-24T01:31:47.987Z,5.80
2022-11-24T01:34:16.979Z,5.70
2022-11-24T01:36:45.746Z,5.80
2022-11-24T01:39:14.236Z,5.80
2022-11-24T01:41:42.036Z,6.00
2022-11-24T01:44:27.299Z,6.10
2022-11-24T01:46:58.555Z,6.10
2022-11-24T01:49:29.882Z,6.20
2022-11-24T01:52:00.681Z,6.20
2022-11-24T01:54:30.288Z,6.30
2022-11-24T01:56:59.714Z,6.30
2022-11-24T01:59:27.688Z,6.40
2022-11-24T02:01:55.861Z,6.20
2022-11-24T02:04:24.967Z,6.00
2022-11-24T02:06:55.196Z,6.10
2022-11-24T02:09:24.452Z,5.90
2022-11-24T02:11:54.370Z,6.20
2022-11-24T02:14:23.282Z,6.00
2022-11-24T02:16:51.885Z,6.30
2022-11-24T02:19:24.253Z,6.40
2022-11-24T02:21:52.489Z,6.40
2022-11-24T02:24:26.043Z,6.50
2022-11-24T02:26:55.050Z,6.50
2022-11-24T02:29:23.003Z,6.50
2022-11-24T02:31:52.092Z,6.30
2022-11-24T02:34:20.157Z,6.30
2022-11-24T02:36:48.183Z,6.30
2022-11-24T02:39:17.507Z,6.40
2022-11-24T02:41:47.211Z,6.50
2022-11-24T02:44:17.347Z,6.50
2022-11-24T02:46:45.067Z,6.60
2022-11-24T02:49:12.796Z,6.60
2022-11-24T02:51:40.829Z,6.50
2022-11-24T02:54:08.478Z,6.40
2022-11-24T02:56:36.132Z,6.50
2022-11-24T02:59:03.809Z,6.50
2022-11-24T03:01:32.869Z,6.60
2022-11-24T03:04:00.613Z,6.40
2022-11-24T03:06:28.244Z,6.50
2022-11-24T03:08:55.891Z,6.50
2022-11-24T03:11:23.546Z,6.50
2022-11-24T03:13:51.217Z,6.50
2022-11-24T03:16:18.944Z,6.40
2022-11-24T03:18:48.528Z,6.40
2022-11-24T03:21:16.208Z,6.50
2022-11-24T03:23:43.853Z,6.30
2022-11-24T03:26:12.183Z,6.40
2022-11-24T03:28:39.848Z,6.30
2022-11-24T03:31:08.015Z,6.40
2022-11-24T03:33:35.872Z,6.60
2022-11-24T03:36:05.106Z,6.40
2022-11-24T03:38:32.993Z,6.50
2022-11-24T03:41:00.710Z,6.60
2022-11-24T03:43:28.766Z,6.60
2022-11-24T03:45:56.604Z,6.60
2022-11-24T03:48:24.400Z,6.50
2022-11-24T03:50:56.058Z,6.60
2022-11-24T03:53:25.659Z,6.60
2022-11-24T03:55:53.389Z,6.70
2022-11-24T03:58:21.425Z,6.80
2022-11-24T04:00:49.323Z,6.80
2022-11-24T04:03:16.998Z,6.80
2022-11-24T04:05:44.681Z,6.90
2022-11-24T04:08:12.402Z,7.00
2022-11-24T04:10:41.722Z,7.00
2022-11-24T04:13:11.485Z,7.00
2022-11-24T04:15:40.648Z,7.00
2022-11-24T04:18:08.381Z,7.10
2022-11-24T04:20:36.535Z,6.80
2022-11-24T04:23:04.293Z,6.70
2022-11-24T04:25:31.975Z,6.70
2022-11-24T04:28:01.221Z,6.90
2022-11-24T04:30:29.877Z,6.80
2022-11-24T04:32:57.984Z,6.90
2022-11-24T04:35:25.718Z,6.80
2022-11-24T04:37:53.483Z,6.70
2022-11-24T04:40:21.622Z,6.70
2022-11-24T04:42:55.789Z,6.90
2022-11-24T04:45:25.068Z,7.00
2022-11-24T04:47:52.732Z,7.00
2022-11-24T04:50:20.728Z,7.10
2022-11-24T04:52:48.488Z,6.80
2022-11-24T04:55:16.536Z,6.70
2022-11-24T04:57:44.204Z,6.60
2022-11-24T05:00:12.684Z,6.70
2022-11-24T05:02:41.740Z,6.60
2022-11-24T05:05:09.912Z,6.70
2022-11-24T05:07:37.640Z,6.70
2022-11-24T05:10:23.139Z,6.60
2022-11-24T05:12:54.969Z,6.70
2022-11-24T05:15:22.666Z,6.60
2022-11-24T05:17:51.693Z,6.70
2022-11-24T05:20:19.618Z,6.80
2022-11-24T05:22:47.520Z,6.80
2022-11-24T05:25:15.472Z,6.80
2022-11-24T05:27:43.145Z,6.80
2022-11-24T05:30:11.208Z,6.60
2022-11-24T05:32:39.094Z,6.70
2022-11-24T05:35:09.697Z,6.90
2022-11-24T05:37:37.967Z,6.90
2022-11-24T05:40:06.869Z,6.80
2022-11-24T05:42:47.572Z,6.50
2022-11-24T05:45:17.513Z,6.60
2022-11-24T05:47:45.873Z,6.70
2022-11-24T05:50:15.734Z,6.60
2022-11-24T05:52:43.547Z,6.60
2022-11-24T05:55:11.760Z,6.60
2022-11-24T05:57:39.740Z,6.60
2022-11-24T06:00:08.563Z,6.50
2022-11-24T06:02:36.414Z,6.60
2022-11-24T06:05:04.309Z,6.60
2022-11-24T06:07:33.915Z,6.60
2022-11-24T06:10:01.765Z,6.60
2022-11-24T06:12:29.390Z,6.80
2022-11-24T06:14:57.177Z,6.80
2022-11-24T06:17:25.336Z,6.90
2022-11-24T06:19:53.003Z,6.60
2022-11-24T06:22:21.988Z,6.60
2022-11-24T06:24:51.294Z,6.60
2022-11-24T06:27:19.084Z,6.50
2022-11-24T06:29:46.751Z,6.60
2022-11-24T06:32:14.421Z,6.60
2022-11-24T06:34:42.143Z,6.60
2022-11-24T06:37:09.955Z,6.60
2022-11-24T06:39:37.619Z,6.80
2022-11-24T06:42:06.640Z,6.70
2022-11-24T06:44:34.571Z,6.80
2022-11-24T06:47:02.527Z,7.00
2022-11-24T06:49:30.310Z,7.10
2022-11-24T06:51:58.241Z,7.10
2022-11-24T06:54:25.897Z,7.10
2022-11-24T06:56:56.847Z,7.10
2022-11-24T06:59:26.437Z,6.90
2022-11-24T07:01:54.321Z,6.90
2022-11-24T07:04:21.973Z,6.80
2022-11-24T07:06:49.638Z,6.90
2022-11-24T07:09:17.430Z,6.90
2022-11-24T07:11:45.095Z,7.00
2022-11-24T07:14:12.745Z,7.00
2022-11-24T07:16:42.010Z,7.20
2022-11-24T07:19:10.456Z,7.10
2022-11-24T07:21:38.129Z,7.20
2022-11-24T07:24:06.464Z,7.20
2022-11-24T07:26:37.210Z,7.20
2022-11-24T07:29:05.537Z,7.20
2022-11-24T07:31:33.267Z,7.00
2022-11-24T07:34:02.272Z,7.00
2022-11-24T07:36:29.924Z,7.20
2022-11-24T07:38:57.594Z,7.20
2022-11-24T07:41:25.257Z,7.20
2022-11-24T07:43:53.119Z,7.20
2022-11-24T07:46:21.097Z,7.10
2022-11-24T07:48:48.899Z,7.20
2022-11-24T07:51:17.880Z,7.20
2022-11-24T07:53:46.177Z,7.20
2022-11-24T07:56:13.865Z,7.30
2022-11-24T07:58:43.689Z,7.40
2022-11-24T08:01:14.433Z,7.40
2022-11-24T08:03:42.736Z,7.50
2022-11-24T08:06:29.983Z,7.50
2022-11-24T08:08:59.971Z,7.50
2022-11-24T08:11:28.095Z,7.50
2022-11-24T08:13:55.773Z,7.50
2022-11-24T08:16:23.934Z,7.50
2022-11-24T08:18:52.317Z,7.40
2022-11-24T08:21:20.387Z,7.40
2022-11-24T08:23:48.139Z,7.50
2022-11-24T08:26:19.263Z,7.50
2022-11-24T08:28:47.581Z,7.40
2022-11-24T08:31:16.065Z,7.40
2022-11-24T08:33:43.903Z,7.40
2022-11-24T08:36:12.852Z,7.50
2022-11-24T08:38:40.808Z,7.60
2022-11-24T08:41:09.792Z,7.70
2022-11-24T08:43:38.988Z,7.70
2022-11-24T08:46:08.271Z,7.70
2022-11-24T08:48:36.325Z,7.70
2022-11-24T08:51:08.180Z,7.80
2022-11-24T08:53:35.961Z,7.80
2022-11-24T08:56:03.998Z,7.90
2022-11-24T08:58:32.151Z,7.90
2022-11-24T09:01:05.906Z,7.90
2022-11-24T09:03:34.369Z,8.00
2022-11-24T09:06:02.276Z,8.00
2022-11-24T09:08:30.319Z,8.00
2022-11-24T09:11:00.030Z,8.00
2022-11-24T09:13:27.975Z,8.00
2022-11-24T09:15:55.923Z,8.00
2022-11-24T09:18:28.962Z,8.10
2022-11-24T09:21:06.726Z,8.10
2022-11-24T09:23:34.674Z,8.10
2022-11-24T09:26:05.996Z,8.10
2022-11-24T09:28:33.664Z,8.10
2022-11-24T09:31:01.807Z,8.20
2022-11-24T09:33:31.512Z,8.10
2022-11-24T09:35:59.491Z,8.20
2022-11-24T09:38:27.302Z,8.20
2022-11-24T09:40:58.185Z,8.30
2022-11-24T09:43:28.007Z,8.30
2022-11-24T09:46:06.670Z,8.30
2022-11-24T09:48:37.674Z,8.30
2022-11-24T09:51:06.232Z,8.30
2022-11-24T09:53:39.070Z,8.40
2022-11-24T09:56:14.057Z,8.40
2022-11-24T09:58:44.237Z,8.40
2022-11-24T10:01:15.948Z,8.30
2022-11-24T10:03:46.088Z,8.30
2022-11-24T10:06:24.591Z,8.30
2022-11-24T10:09:04.474Z,8.40
2022-11-24T10:11:35.852Z,8.40
2022-11-24T10:14:08.492Z,8.50
2022-11-24T10:16:44.135Z,8.50
2022-11-24T10:19:19.333Z,8.50
2022-11-24T10:21:59.608Z,8.60
2022-11-24T10:24:44.698Z,8.60
2022-11-24T10:27:18.556Z,8.70
2022-11-24T10:29:47.656Z,8.70
2022-11-24T10:32:16.510Z,8.80
2022-11-24T10:34:46.281Z,8.90
2022-11-24T10:37:17.734Z,8.80
2022-11-24T10:39:50.490Z,8.80
2022-11-24T10:42:20.015Z,8.90
2022-11-24T10:44:47.760Z,9.00
2022-11-24T10:47:18.185Z,9.00
2022-11-24T10:49:53.100Z,9.00
2022-11-24T10:52:23.417Z,9.00
2022-11-24T10:54:58.089Z,9.00
2022-11-24T10:57:29.752Z,9.00
2022-11-24T10:59:57.438Z,9.10
2022-11-24T11:02:35.794Z,9.10
2022-11-24T11:05:21.418Z,9.20
2022-11-24T11:07:50.460Z,9.20
2022-11-24T11:10:19.547Z,9.30
2022-11-24T11:12:47.327Z,9.30
2022-11-24T11:15:29.639Z,9.40
2022-11-24T11:17:58.446Z,9.40
2022-11-24T11:20:29.017Z,9.50
2022-11-24T11:22:58.637Z,9.50
2022-11-24T11:25:32.166Z,9.60
2022-11-24T11:28:19.069Z,9.60
2022-11-24T11:31:16.473Z,9.60
2022-11-24T11:34:16.649Z,9.70
2022-11-24T11:36:44.951Z,9.70
2022-11-24T11:39:21.201Z,9.70
2022-11-24T11:41:50.688Z,9.80
2022-11-24T11:44:22.368Z,9.80
2022-11-24T11:46:50.119Z,9.80
2022-11-24T11:49:17.963Z,9.80
2022-11-24T11:51:53.478Z,9.80
2022-11-24T11:54:29.154Z,9.90
2022-11-24T11:57:01.884Z,9.90
2022-11-24T11:59:37.402Z,9.90
2022-11-24T12:02:25.707Z,9.90
2022-11-24T12:04:54.055Z,9.90
2022-11-24T12:07:37.220Z,9.90
2022-11-24T12:10:11.655Z,9.90
2022-11-24T12:12:48.739Z,9.90
2022-11-24T12:15:18.139Z,9.90
2022-11-24T12:17:52.922Z,10.00
2022-11-24T12:20:32.110Z,10.00
2022-11-24T12:23:03.801Z,10.00
2022-11-24T12:25:35.551Z,10.00
2022-11-24T12:28:06.858Z,10.00
2022-11-24T12:30:39.005Z,10.00
2022-11-24T12:33:12.713Z,10.00
2022-11-24T12:35:43.374Z,10.00
2022-11-24T12:38:23.741Z,10.00
2022-11-24T12:41:25.381Z,10.00
2022-11-24T12:43:51.918Z,10.10
2022-11-24T12:46:22.286Z,10.10
2022-11-24T12:48:53.998Z,10.10
2022-11-24T12:51:23.881Z,10.10
2022-11-24T12:53:53.303Z,10.20
2022-11-24T12:56:25.044Z,10.20
2022-11-24T12:58:55.467Z,10.30
2022-11-24T13:01:26.567Z,10.20
2022-11-24T13:04:00.944Z,10.20
2022-11-24T13:06:30.246Z,10.20
2022-11-24T13:08:57.946Z,10.20
2022-11-24T13:11:40.818Z,10.10
2022-11-24T13:14:13.001Z,10.10
2022-11-24T13:17:13.337Z,10.20
2022-11-24T13:19:37.504Z,10.10
2022-11-24T13:22:14.693Z,10.10
2022-11-24T13:24:44.764Z,10.20
2022-11-24T13:27:28.876Z,10.20
2022-11-24T13:29:56.539Z,10.20
2022-11-24T13:32:42.118Z,10.10
2022-11-24T13:35:14.423Z,10.20
2022-11-24T13:37:46.851Z,10.20
2022-11-24T13:40:29.870Z,10.20
2022-11-24T13:43:15.504Z,10.20
2022-11-24T13:45:51.092Z,10.20
2022-11-24T13:48:37.242Z,10.30
2022-11-24T13:51:14.688Z,10.30
2022-11-24T13:53:43.316Z,10.30
2022-11-24T13:56:24.407Z,10.30
2022-11-24T13:58:53.269Z,10.30
2022-11-24T14:01:23.200Z,10.30
2022-11-24T14:04:30.127Z,10.30
2022-11-24T14:06:48.827Z,10.30
2022-11-24T14:09:21.071Z,10.30
2022-11-24T14:11:57.148Z,10.30
2022-11-24T14:14:24.908Z,10.30
2022-11-24T14:17:07.526Z,10.30
2022-11-24T14:19:35.192Z,10.30
2022-11-24T14:22:02.860Z,10.30
2022-11-24T14:24:35.391Z,10.30
2022-11-24T14:27:05.819Z,10.30
2022-11-24T14:29:34.687Z,10.40
2022-11-24T14:32:04.830Z,10.30
2022-11-24T14:34:36.370Z,10.40
2022-11-24T14:37:05.234Z,10.40
2022-11-24T14:39:40.806Z,10.40
2022-11-24T14:42:17.903Z,10.30
2022-11-24T14:44:47.698Z,10.30
2022-11-24T14:47:17.745Z,10.30
2022-11-24T14:49:46.887Z,10.30
2022-11-24T14:52:16.385Z,10.30
2022-11-24T14:54:47.351Z,10.20
2022-11-24T14:57:24.259Z,10.20
2022-11-24T15:00:05.400Z,10.20
2022-11-24T15:02:44.562Z,10.20
2022-11-24T15:05:13.577Z,10.20
2022-11-24T15:07:43.371Z,10.20
2022-11-24T15:10:19.683Z,10.20
2022-11-24T15:12:50.892Z,10.20
2022-11-24T15:15:20.219Z,10.20
2022-11-24T15:17:48.573Z,10.10
2022-11-24T15:20:18.715Z,10.10
2022-11-24T15:22:47.732Z,10.10
2022-11-24T15:25:25.927Z,10.10
2022-11-24T15:27:53.666Z,10.00
2022-11-24T15:30:21.464Z,9.90
2022-11-24T15:32:49.778Z,9.90
2022-11-24T15:35:17.485Z,9.90
2022-11-24T15:37:45.456Z,9.90
2022-11-24T15:40:15.480Z,9.90
2022-11-24T15:42:44.464Z,9.90
2022-11-24T15:45:12.435Z,9.90
2022-11-24T15:47:40.108Z,9.80
2022-11-24T15:50:08.391Z,9.80
2022-11-24T15:52:36.306Z,9.70
2022-11-24T15:55:04.318Z,9.80
2022-11-24T15:57:34.169Z,9.80
2022-11-24T16:00:01.833Z,9.80
2022-11-24T16:02:29.814Z,9.80
2022-11-24T16:04:57.763Z,9.80
2022-11-24T16:07:25.495Z,9.70
2022-11-24T16:10:03.473Z,9.60
2022-11-24T16:12:32.750Z,9.70
2022-11-24T16:15:00.419Z,9.80
2022-11-24T16:17:28.089Z,9.80
2022-11-24T16:20:00.296Z,9.80
2022-11-24T16:22:28.514Z,9.80
2022-11-24T16:24:56.190Z,9.70
2022-11-24T16:27:23.864Z,9.80
2022-11-24T16:29:52.854Z,9.70
2022-11-24T16:32:20.747Z,9.60
2022-11-24T16:34:48.685Z,9.60
2022-11-24T16:37:16.376Z,9.50
2022-11-24T16:39:49.821Z,9.20
2022-11-24T16:42:18.212Z,8.90
2022-11-24T16:44:45.879Z,8.80
2022-11-24T16:47:15.790Z,8.80
2022-11-24T16:49:43.554Z,8.50
2022-11-24T16:52:11.810Z,8.40
2022-11-24T16:54:39.521Z,8.40
2022-11-24T16:57:13.239Z,8.50
2022-11-24T16:59:43.195Z,8.30
2022-11-24T17:02:12.441Z,8.20
2022-11-24T17:04:41.439Z,8.10
2022-11-24T17:07:09.162Z,7.90
2022-11-24T17:09:40.558Z,8.00
2022-11-24T17:12:08.795Z,8.10
2022-11-24T17:14:37.223Z,8.20
2022-11-24T17:17:05.069Z,8.20
2022-11-24T17:19:32.893Z,8.00
2022-11-24T17:22:01.865Z,8.10
2022-11-24T17:24:29.506Z,7.80
2022-11-24T17:26:57.168Z,7.80
2022-11-24T17:29:24.848Z,7.90
2022-11-24T17:31:52.880Z,7.80
2022-11-24T17:34:20.609Z,7.60
2022-11-24T17:36:48.245Z,7.70
2022-11-24T17:39:21.783Z,7.60
2022-11-24T17:41:52.460Z,7.70
2022-11-24T17:44:20.140Z,7.70
2022-11-24T17:46:47.813Z,7.80
2022-11-24T17:49:15.463Z,7.60
2022-11-24T17:51:43.297Z,7.40
2022-11-24T17:54:39.168Z,7.10
2022-11-24T17:56:59.921Z,7.10
2022-11-24T17:59:27.561Z,7.20
2022-11-24T18:01:55.261Z,7.20
2022-11-24T18:04:22.940Z,7.10
2022-11-24T18:06:50.567Z,7.00
2022-11-24T18:09:18.219Z,7.10
2022-11-24T18:11:46.740Z,7.00
2022-11-24T18:14:15.713Z,6.90
2022-11-24T18:16:43.405Z,6.90
2022-11-24T18:19:11.985Z,6.90
2022-11-24T18:21:39.953Z,7.00
2022-11-24T18:24:07.934Z,7.20
2022-11-24T18:26:35.600Z,7.40
2022-11-24T18:29:03.296Z,7.40
2022-11-24T18:31:34.176Z,7.30
2022-11-24T18:34:02.091Z,7.20
2022-11-24T18:36:30.848Z,7.20
2022-11-24T18:39:00.863Z,7.20
2022-11-24T18:41:28.634Z,7.10
2022-11-24T18:43:56.396Z,7.10
2022-11-24T18:46:24.064Z,7.00
2022-11-24T18:48:53.269Z,6.90
2022-11-24T18:51:22.663Z,7.00
2022-11-24T18:53:53.336Z,7.00
2022-11-24T18:56:21.254Z,7.30
2022-11-24T18:58:48.895Z,7.00
2022-11-24T19:01:17.768Z,7.00
2022-11-24T19:03:48.764Z,7.00
2022-11-24T19:06:27.371Z,7.10
2022-11-24T19:08:55.406Z,7.10
2022-11-24T19:11:23.784Z,7.00
2022-11-24T19:13:51.654Z,7.00
2022-11-24T19:16:20.443Z,7.00
2022-11-24T19:18:53.676Z,7.00
2022-11-24T19:21:23.665Z,6.90
2022-11-24T19:23:51.295Z,6.90
2022-11-24T19:26:19.206Z,6.90
2022-11-24T19:28:46.858Z,6.90
2022-11-24T19:31:15.564Z,6.90
2022-11-24T19:33:43.577Z,6.90
2022-11-24T19:36:15.527Z,6.90
2022-11-24T19:38:49.708Z,7.00
2022-11-24T19:41:19.359Z,7.10
2022-11-24T19:43:47.372Z,7.00
2022-11-24T19:46:16.003Z,7.00
2022-11-24T19:48:44.128Z,7.00
2022-11-24T19:51:13.091Z,7.20
2022-11-24T19:53:40.841Z,7.40
2022-11-24T19:56:10.495Z,7.30
2022-11-24T19:58:38.457Z,7.10
2022-11-24T20:01:06.616Z,7.10
2022-11-24T20:03:34.692Z,7.20
2022-11-24T20:06:02.359Z,7.30
2022-11-24T20:08:30.703Z,7.40
2022-11-24T20:11:02.911Z,7.40
2022-11-24T20:13:31.900Z,7.40
2022-11-24T20:16:03.144Z,7.30
2022-11-24T20:18:32.064Z,7.40
2022-11-24T20:21:03.867Z,7.30
2022-11-24T20:23:31.601Z,7.40
2022-11-24T20:26:04.168Z,7.50
2022-11-24T20:28:33.380Z,7.40
2022-11-24T20:31:04.215Z,7.30
2022-11-24T20:33:31.932Z,7.30
2022-11-24T20:36:04.322Z,7.20
2022-11-24T20:38:32.076Z,7.20
2022-11-24T20:41:08.759Z,7.30
2022-11-24T20:43:38.852Z,7.20
2022-11-24T20:46:07.523Z,7.10
2022-11-24T20:48:35.640Z,7.10
2022-11-24T20:51:04.286Z,7.10
2022-11-24T20:53:31.949Z,7.20
2022-11-24T20:56:06.037Z,7.00
2022-11-24T20:58:34.783Z,7.00
2022-11-24T21:01:08.788Z,6.80
2022-11-24T21:03:42.628Z,6.80
2022-11-24T21:06:11.574Z,6.90
2022-11-24T21:08:39.807Z,6.90
2022-11-24T21:11:08.181Z,6.90
2022-11-24T21:13:36.773Z,6.70
2022-11-24T21:16:13.649Z,6.70
2022-11-24T21:18:44.491Z,6.70
2022-11-24T21:21:12.573Z,6.50
2022-11-24T21:23:40.251Z,6.40
2022-11-24T21:26:13.031Z,6.40
2022-11-24T21:28:42.701Z,6.40
2022-11-24T21:31:12.039Z,6.30
2022-11-24T21:33:42.355Z,6.20
2022-11-24T21:36:10.133Z,6.10
2022-11-24T21:38:37.792Z,6.00
2022-11-24T21:41:06.116Z,6.00
2022-11-24T21:43:34.180Z,6.10
2022-11-24T21:46:02.692Z,6.10
2022-11-24T21:48:30.456Z,5.90
2022-11-24T21:50:59.915Z,5.80
2022-11-24T21:53:27.873Z,5.80
2022-11-24T21:55:56.279Z,5.90
2022-11-24T21:58:23.972Z,5.90
2022-11-24T22:00:51.690Z,5.70
2022-11-24T22:03:20.058Z,5.60
2022-11-24T22:05:53.717Z,5.70
2022-11-24T22:08:22.725Z,5.60
2022-11-24T22:10:50.368Z,5.70
2022-11-24T22:13:18.348Z,5.60
2022-11-24T22:15:46.018Z,6.00
2022-11-24T22:18:13.679Z,5.60
2022-11-24T22:20:41.327Z,5.40
2022-11-24T22:23:09.288Z,5.30
2022-11-24T22:25:38.279Z,5.10
2022-11-24T22:28:05.980Z,5.10
2022-11-24T22:30:33.631Z,5.00
2022-11-24T22:33:01.282Z,5.10
2022-11-24T22:35:28.906Z,5.20
2022-11-24T22:37:56.559Z,5.00
2022-11-24T22:40:24.270Z,5.00
2022-11-24T22:42:53.286Z,5.10
2022-11-24T22:45:20.940Z,5.10
2022-11-24T22:47:48.593Z,5.00
2022-11-24T22:50:16.266Z,5.00
2022-11-24T22:52:43.916Z,5.00
2022-11-24T22:55:11.778Z,4.80
2022-11-24T22:57:39.444Z,4.70
2022-11-24T23:00:09.425Z,4.90
2022-11-24T23:02:37.118Z,4.90
2022-11-24T23:05:04.999Z,5.20
2022-11-24T23:07:32.737Z,5.00
2022-11-24T23:10:00.396Z,5.00
2022-11-24T23:12:28.047Z,4.80
2022-11-24T23:14:55.728Z,4.70
2022-11-24T23:17:24.723Z,4.60
2022-11-24T23:19:52.386Z,4.60
2022-11-24T23:22:20.056Z,4.50
2022-11-24T23:24:47.686Z,4.90
2022-11-24T23:27:15.333Z,4.90
2022-11-24T23:29:42.966Z,4.80
2022-11-24T23:32:11.343Z,4.80
2022-11-24T23:34:40.318Z,4.80
2022-11-24T23:37:07.974Z,4.70
2022-11-24T23:39:35.624Z,4.70
2022-11-24T23:42:03.273Z,4.80
2022-11-24T23:44:30.951Z,4.90
2022-11-24T23:46:58.597Z,4.80
2022-11-24T23:49:26.249Z,4.50
2022-11-24T23:51:55.221Z,4.50
2022-11-24T23:54:22.872Z,4.50
2022-11-24T23:56:50.502Z,4.50
2022-11-24T23:59:19.648Z,4.40
